createdAt,value
2023-04-16T00:00:56.738Z,77.80
2023-04-16T00:03:59.091Z,77.53
2023-04-16T00:07:01.269Z,78.64
2023-04-16T00:10:03.256Z,76.16
2023-04-16T00:13:05.196Z,75.10
2023-04-16T00:16:07.367Z,75.75
2023-04-16T00:19:09.730Z,77.07
2023-04-16T00:22:11.775Z,74.66
2023-04-16T00:25:13.867Z,72.86
2023-04-16T00:28:15.692Z,75.84
2023-04-16T00:31:17.658Z,78.04
2023-04-16T00:34:19.544Z,79.65
2023-04-16T00:37:21.537Z,77.13
2023-04-16T00:40:23.461Z,77.25
2023-04-16T00:43:25.921Z,81.18
2023-04-16T00:46:27.864Z,78.78
2023-04-16T00:49:29.933Z,81.43
2023-04-16T00:52:32.005Z,81.16
2023-04-16T00:55:33.934Z,78.18
2023-04-16T00:58:35.853Z,78.53
2023-04-16T01:01:37.744Z,80.54
2023-04-16T01:04:39.726Z,81.29
2023-04-16T01:07:41.592Z,80.29
2023-04-16T01:10:43.441Z,80.20
2023-04-16T01:13:45.401Z,82.12
2023-04-16T01:16:47.347Z,84.31
2023-04-16T01:19:49.203Z,83.09
2023-04-16T01:22:51.045Z,82.30
2023-04-16T01:25:52.910Z,80.54
2023-04-16T01:28:54.822Z,82.13
2023-04-16T01:31:56.696Z,82.59
2023-04-16T01:34:58.498Z,80.86
2023-04-16T01:38:00.363Z,77.90
2023-04-16T01:41:02.207Z,79.66
2023-04-16T01:44:04.133Z,75.46
2023-04-16T01:47:05.911Z,77.70
2023-04-16T01:50:07.909Z,81.76
2023-04-16T01:53:09.747Z,80.25
2023-04-16T01:56:11.670Z,80.90
2023-04-16T01:59:13.543Z,82.47
2023-04-16T02:02:16.250Z,81.22
2023-04-16T02:05:18.267Z,79.94
2023-04-16T02:08:20.160Z,79.74
2023-04-16T02:11:22.043Z,79.82
2023-04-16T02:14:25.618Z,80.90
2023-04-16T02:17:27.583Z,82.17
2023-04-16T02:20:29.539Z,82.06
2023-04-16T02:23:31.388Z,83.23
2023-04-16T02:26:33.332Z,81.27
2023-04-16T02:29:35.344Z,80.25
2023-04-16T02:32:37.248Z,78.58
2023-04-16T02:35:43.588Z,78.94
2023-04-16T02:38:45.370Z,77.34
2023-04-16T02:41:47.240Z,74.91
2023-04-16T02:44:49.058Z,75.85
2023-04-16T02:47:51.086Z,73.90
2023-04-16T02:50:52.973Z,74.86
2023-04-16T02:53:54.848Z,75.35
2023-04-16T02:56:56.931Z,78.96
2023-04-16T02:59:58.790Z,78.22
2023-04-16T03:03:00.789Z,80.34
2023-04-16T03:06:02.665Z,79.74
2023-04-16T03:09:04.655Z,80.56
2023-04-16T03:12:06.549Z,74.12
2023-04-16T03:15:08.665Z,73.74
2023-04-16T03:18:10.692Z,75.18
2023-04-16T03:21:12.602Z,74.46
2023-04-16T03:24:14.502Z,78.55
2023-04-16T03:27:16.384Z,79.26
2023-04-16T03:30:18.243Z,76.79
2023-04-16T03:33:20.690Z,76.36
2023-04-16T03:36:23.346Z,76.48
2023-04-16T03:39:25.347Z,75.66
2023-04-16T03:42:27.248Z,77.24
2023-04-16T03:45:29.046Z,78.19
2023-04-16T03:48:30.926Z,78.20
2023-04-16T03:51:32.909Z,79.98
2023-04-16T03:54:34.776Z,78.68
2023-04-16T03:57:36.580Z,80.04
2023-04-16T04:00:41.155Z,81.14
2023-04-16T04:03:43.294Z,80.54
2023-04-16T04:06:45.657Z,78.27
2023-04-16T04:09:47.479Z,80.11
2023-04-16T04:12:49.386Z,77.72
2023-04-16T04:15:51.560Z,78.75
2023-04-16T04:18:53.403Z,78.97
2023-04-16T04:21:55.444Z,80.04
2023-04-16T04:24:57.244Z,78.99
2023-04-16T04:27:59.117Z,80.80
2023-04-16T04:31:01.380Z,80.19
2023-04-16T04:34:03.311Z,77.28
2023-04-16T04:37:05.209Z,78.14
2023-04-16T04:40:07.510Z,78.76
2023-04-16T04:43:09.402Z,77.62
2023-04-16T04:46:11.446Z,73.72
2023-04-16T04:49:13.339Z,75.52
2023-04-16T04:52:15.357Z,77.73
2023-04-16T04:55:17.260Z,78.00
2023-04-16T04:58:19.147Z,76.39
2023-04-16T05:01:21.120Z,73.49
2023-04-16T05:04:23.023Z,73.40
2023-04-16T05:07:24.981Z,75.83
2023-04-16T05:10:27.093Z,76.22
2023-04-16T05:13:28.974Z,74.82
2023-04-16T05:16:30.913Z,75.00
2023-04-16T05:19:32.920Z,74.06
2023-04-16T05:22:34.765Z,76.21
2023-04-16T05:25:36.917Z,73.74
2023-04-16T05:28:38.776Z,76.43
2023-04-16T05:31:41.051Z,74.39
2023-04-16T05:34:42.917Z,72.36
2023-04-16T05:37:44.783Z,73.76
2023-04-16T05:40:46.594Z,71.98
2023-04-16T05:43:48.489Z,72.11
2023-04-16T05:46:50.344Z,74.48
2023-04-16T05:49:52.189Z,75.35
2023-04-16T05:52:54.135Z,73.77
2023-04-16T05:55:56.032Z,74.37
2023-04-16T05:58:58.132Z,75.76
2023-04-16T06:02:00.388Z,77.89
2023-04-16T06:05:02.575Z,76.63
2023-04-16T06:08:04.421Z,75.76
2023-04-16T06:11:06.609Z,75.28
2023-04-16T06:14:08.457Z,74.36
2023-04-16T06:17:10.492Z,73.82
2023-04-16T06:20:12.642Z,75.32
2023-04-16T06:23:14.783Z,77.93
2023-04-16T06:26:16.875Z,74.16
2023-04-16T06:29:18.719Z,75.60
2023-04-16T06:32:20.681Z,73.48
2023-04-16T06:35:22.672Z,71.52
2023-04-16T06:38:24.577Z,71.35
2023-04-16T06:41:27.227Z,68.63
2023-04-16T06:44:29.113Z,69.68
2023-04-16T06:47:31.014Z,69.27
2023-04-16T06:50:33.134Z,69.45
2023-04-16T06:53:37.464Z,68.28
2023-04-16T06:56:39.371Z,67.48
2023-04-16T06:59:41.317Z,69.05
2023-04-16T07:02:43.284Z,66.95
2023-04-16T07:05:45.399Z,69.26
2023-04-16T07:08:47.290Z,66.56
2023-04-16T07:11:49.135Z,65.70
2023-04-16T07:14:51.011Z,64.41
2023-04-16T07:17:52.966Z,63.53
2023-04-16T07:20:54.805Z,62.80
2023-04-16T07:23:56.755Z,61.06
2023-04-16T07:26:58.825Z,60.42
2023-04-16T07:30:01.054Z,60.46
2023-04-16T07:33:03.457Z,58.97
2023-04-16T07:36:05.479Z,56.61
2023-04-16T07:39:07.356Z,60.24
2023-04-16T07:42:09.275Z,60.65
2023-04-16T07:45:11.434Z,65.06
2023-04-16T07:48:13.583Z,62.18
2023-04-16T07:51:15.680Z,67.49
2023-04-16T07:54:17.573Z,62.77
2023-04-16T07:57:19.411Z,62.27
2023-04-16T08:00:21.419Z,61.87
2023-04-16T08:03:23.633Z,62.54
2023-04-16T08:06:26.775Z,60.12
2023-04-16T08:09:29.027Z,60.41
2023-04-16T08:12:31.041Z,59.20
2023-04-16T08:15:32.929Z,59.53
2023-04-16T08:18:34.824Z,55.50
2023-04-16T08:21:36.711Z,54.84
2023-04-16T08:24:38.586Z,54.92
2023-04-16T08:27:40.638Z,58.09
2023-04-16T08:30:42.503Z,54.90
2023-04-16T08:33:44.493Z,56.20
2023-04-16T08:36:46.425Z,60.22
2023-04-16T08:39:48.300Z,58.02
2023-04-16T08:42:53.402Z,55.49
2023-04-16T08:45:56.558Z,53.60
2023-04-16T08:48:58.378Z,54.68
2023-04-16T08:52:00.438Z,49.81
2023-04-16T08:55:02.538Z,50.04
2023-04-16T08:58:07.837Z,50.12
2023-04-16T09:01:09.766Z,54.63
2023-04-16T09:04:11.857Z,53.40
2023-04-16T09:07:13.849Z,50.30
2023-04-16T09:10:16.406Z,50.22
2023-04-16T09:13:20.514Z,46.92
2023-04-16T09:16:22.506Z,49.27
2023-04-16T09:19:24.552Z,49.45
2023-04-16T09:22:26.415Z,50.56
2023-04-16T09:25:28.298Z,52.18
2023-04-16T09:28:40.902Z,55.62
2023-04-16T09:31:42.944Z,51.57
2023-04-16T09:34:53.918Z,53.22
2023-04-16T09:37:56.959Z,52.82
2023-04-16T09:41:08.327Z,53.25
2023-04-16T09:44:10.194Z,53.63
2023-04-16T09:47:12.773Z,53.69
2023-04-16T09:50:18.901Z,53.15
2023-04-16T09:53:27.977Z,52.57
2023-04-16T09:56:30.544Z,53.65
2023-04-16T09:59:34.202Z,51.63
2023-04-16T10:02:39.236Z,52.38
2023-04-16T10:05:41.456Z,49.43
2023-04-16T10:08:44.137Z,47.89
2023-04-16T10:11:46.028Z,45.21
2023-04-16T10:14:50.008Z,46.67
2023-04-16T10:17:52.307Z,48.09
2023-04-16T10:20:54.210Z,47.66
2023-04-16T10:23:55.998Z,44.90
2023-04-16T10:26:58.216Z,41.47
2023-04-16T10:30:00.477Z,42.32
2023-04-16T10:33:03.108Z,39.73
2023-04-16T10:36:09.603Z,38.00
2023-04-16T10:39:14.709Z,39.99
2023-04-16T10:42:18.741Z,41.54
2023-04-16T10:45:21.545Z,37.80
2023-04-16T10:48:30.812Z,40.92
2023-04-16T10:51:37.664Z,39.10
2023-04-16T10:54:39.820Z,42.08
2023-04-16T10:57:41.716Z,39.04
2023-04-16T11:00:51.102Z,37.58
2023-04-16T11:03:53.140Z,41.03
2023-04-16T11:07:04.532Z,38.08
2023-04-16T11:10:06.855Z,40.62
2023-04-16T11:13:09.666Z,37.42
2023-04-16T11:16:12.150Z,36.33
2023-04-16T11:19:17.762Z,36.38
2023-04-16T11:22:19.628Z,35.97
2023-04-16T11:25:22.453Z,32.46
2023-04-16T11:28:34.350Z,37.36
2023-04-16T11:31:36.330Z,33.40
2023-04-16T11:34:45.402Z,34.86
2023-04-16T11:37:48.433Z,37.87
2023-04-16T11:40:51.664Z,37.17
2023-04-16T11:43:53.595Z,40.14
2023-04-16T11:46:55.711Z,37.23
2023-04-16T11:49:58.292Z,37.50
2023-04-16T11:53:03.824Z,36.85
2023-04-16T11:56:05.755Z,36.18
2023-04-16T11:59:11.380Z,33.10
2023-04-16T12:02:13.616Z,32.39
2023-04-16T12:05:31.962Z,33.14
2023-04-16T12:08:33.876Z,33.59
2023-04-16T12:11:39.605Z,31.93
2023-04-16T12:14:49.467Z,33.34
2023-04-16T12:17:54.503Z,34.87
2023-04-16T12:20:56.394Z,32.45
2023-04-16T12:23:58.238Z,30.31
2023-04-16T12:27:03.085Z,33.02
2023-04-16T12:30:07.333Z,34.34
2023-04-16T12:33:16.685Z,35.09
2023-04-16T12:36:18.937Z,33.04
2023-04-16T12:39:20.798Z,34.29
2023-04-16T12:42:22.715Z,33.83
2023-04-16T12:45:24.773Z,34.50
2023-04-16T12:48:26.650Z,33.99
2023-04-16T12:51:28.548Z,34.37
2023-04-16T12:54:31.347Z,35.19
2023-04-16T12:57:33.199Z,33.38
2023-04-16T13:00:35.088Z,36.31
2023-04-16T13:03:37.287Z,36.76
2023-04-16T13:06:40.193Z,35.20
2023-04-16T13:09:42.404Z,35.36
2023-04-16T13:12:44.250Z,35.26
2023-04-16T13:15:46.244Z,35.02
2023-04-16T13:18:48.238Z,37.10
2023-04-16T13:21:50.064Z,36.75
2023-04-16T13:24:51.928Z,35.61
2023-04-16T13:27:56.377Z,37.51
2023-04-16T13:30:58.300Z,38.31
2023-04-16T13:34:00.245Z,36.33
2023-04-16T13:37:02.250Z,36.05
2023-04-16T13:40:04.397Z,37.68
2023-04-16T13:43:07.805Z,38.86
2023-04-16T13:46:09.813Z,37.39
2023-04-16T13:49:11.827Z,38.58
2023-04-16T13:52:13.788Z,40.04
2023-04-16T13:55:19.215Z,38.57
2023-04-16T13:58:21.317Z,38.16
2023-04-16T14:01:23.468Z,39.28
2023-04-16T14:04:25.840Z,37.70
2023-04-16T14:07:27.806Z,39.11
2023-04-16T14:10:29.713Z,38.03
2023-04-16T14:13:31.747Z,39.18
2023-04-16T14:16:33.957Z,38.00
2023-04-16T14:19:35.879Z,40.01
2023-04-16T14:22:37.789Z,39.82
2023-04-16T14:25:39.724Z,39.52
2023-04-16T14:28:41.698Z,39.44
2023-04-16T14:31:43.639Z,39.03
2023-04-16T14:34:45.637Z,38.98
2023-04-16T14:37:47.475Z,39.94
2023-04-16T14:40:49.476Z,38.57
2023-04-16T14:43:51.475Z,37.91
2023-04-16T14:46:53.837Z,37.26
2023-04-16T14:49:55.723Z,37.04
2023-04-16T14:52:57.826Z,36.14
2023-04-16T14:55:59.812Z,37.46
2023-04-16T14:59:01.666Z,35.13
2023-04-16T15:02:03.756Z,35.75
2023-04-16T15:05:07.815Z,35.79
2023-04-16T15:08:09.791Z,35.74
2023-04-16T15:11:11.666Z,36.17
2023-04-16T15:14:13.573Z,34.83
2023-04-16T15:17:15.457Z,35.40
2023-04-16T15:20:17.476Z,35.53
2023-04-16T15:23:19.350Z,33.49
2023-04-16T15:26:21.571Z,34.19
2023-04-16T15:29:23.455Z,33.84
2023-04-16T15:32:25.506Z,35.42
2023-04-16T15:35:27.454Z,34.25
2023-04-16T15:38:30.731Z,33.96
2023-04-16T15:41:34.828Z,35.02
2023-04-16T15:44:36.922Z,35.00
2023-04-16T15:47:41.508Z,36.09
2023-04-16T15:50:43.884Z,34.97
2023-04-16T15:53:45.981Z,34.06
2023-04-16T15:56:47.827Z,34.85
2023-04-16T16:00:05.308Z,35.22
2023-04-16T16:03:09.628Z,35.85
2023-04-16T16:06:11.706Z,36.22
2023-04-16T16:09:13.679Z,35.31
2023-04-16T16:12:15.624Z,35.96
2023-04-16T16:15:17.677Z,36.75
2023-04-16T16:18:19.528Z,37.21
2023-04-16T16:21:21.872Z,37.27
2023-04-16T16:24:23.995Z,37.87
2023-04-16T16:27:26.027Z,38.18
2023-04-16T16:30:27.919Z,37.01
2023-04-16T16:33:30.600Z,38.30
2023-04-16T16:36:36.775Z,38.25
2023-04-16T16:39:39.114Z,38.42
2023-04-16T16:42:41.176Z,38.81
2023-04-16T16:45:43.115Z,38.81
2023-04-16T16:48:45.078Z,38.07
2023-04-16T16:51:47.520Z,38.62
2023-04-16T16:54:49.386Z,39.26
2023-04-16T16:57:51.313Z,38.41
2023-04-16T17:00:53.336Z,38.53
2023-04-16T17:03:56.231Z,39.92
2023-04-16T17:06:58.195Z,38.96
2023-04-16T17:10:03.064Z,38.95
2023-04-16T17:13:06.656Z,38.44
2023-04-16T17:16:08.616Z,38.01
2023-04-16T17:19:12.369Z,37.85
2023-04-16T17:22:14.451Z,38.93
2023-04-16T17:25:16.401Z,38.66
2023-04-16T17:28:18.407Z,39.32
2023-04-16T17:31:20.304Z,38.69
2023-04-16T17:34:22.479Z,39.39
2023-04-16T17:37:24.348Z,41.87
2023-04-16T17:40:26.229Z,41.29
2023-04-16T17:43:28.597Z,41.87
2023-04-16T17:46:30.738Z,43.10
2023-04-16T17:49:32.842Z,43.45
2023-04-16T17:52:34.760Z,42.49
2023-04-16T17:55:36.715Z,42.27
2023-04-16T17:58:38.641Z,41.89
2023-04-16T18:01:41.037Z,42.11
2023-04-16T18:04:43.161Z,43.92
2023-04-16T18:07:47.015Z,44.37
2023-04-16T18:10:48.962Z,43.52
2023-04-16T18:13:53.111Z,44.17
2023-04-16T18:16:55.045Z,45.41
2023-04-16T18:19:56.956Z,46.61
2023-04-16T18:22:58.872Z,47.50
2023-04-16T18:26:00.726Z,46.32
2023-04-16T18:29:03.074Z,45.97
2023-04-16T18:32:05.463Z,47.36
2023-04-16T18:35:07.674Z,47.11
2023-04-16T18:38:09.656Z,47.24
2023-04-16T18:41:20.874Z,49.54
2023-04-16T18:44:23.671Z,50.53
2023-04-16T18:47:25.794Z,49.30
2023-04-16T18:50:27.657Z,48.84
2023-04-16T18:53:29.664Z,50.37
2023-04-16T18:56:31.560Z,49.12
2023-04-16T18:59:33.507Z,51.17
2023-04-16T19:02:35.496Z,49.54
2023-04-16T19:05:37.407Z,49.69
2023-04-16T19:08:39.282Z,49.29
2023-04-16T19:11:41.286Z,49.61
2023-04-16T19:14:43.248Z,49.42
2023-04-16T19:17:45.166Z,47.57
2023-04-16T19:20:47.159Z,47.21
2023-04-16T19:23:49.243Z,47.71
2023-04-16T19:26:51.155Z,48.21
2023-04-16T19:29:53.125Z,47.84
2023-04-16T19:32:55.661Z,49.02
2023-04-16T19:35:57.710Z,48.56
2023-04-16T19:38:59.724Z,48.39
2023-04-16T19:42:01.769Z,48.07
2023-04-16T19:45:03.960Z,50.30
2023-04-16T19:48:05.954Z,48.89
2023-04-16T19:51:07.964Z,49.59
2023-04-16T19:54:09.800Z,48.75
2023-04-16T19:57:11.764Z,49.33
2023-04-16T20:00:13.934Z,48.22
2023-04-16T20:03:15.829Z,46.24
2023-04-16T20:06:17.744Z,47.04
2023-04-16T20:09:20.288Z,47.66
2023-04-16T20:12:22.928Z,46.54
2023-04-16T20:15:24.876Z,46.05
2023-04-16T20:18:28.872Z,48.08
2023-04-16T20:21:32.075Z,47.00
2023-04-16T20:24:34.311Z,47.77
2023-04-16T20:27:36.289Z,46.82
2023-04-16T20:30:41.329Z,47.25
2023-04-16T20:33:43.227Z,47.80
2023-04-16T20:36:45.241Z,47.60
2023-04-16T20:39:50.221Z,45.52
2023-04-16T20:42:52.305Z,47.03
2023-04-16T20:45:54.216Z,46.94
2023-04-16T20:48:56.187Z,46.14
2023-04-16T20:51:58.072Z,48.17
2023-04-16T20:54:59.937Z,48.10
2023-04-16T20:58:01.844Z,48.08
2023-04-16T21:01:05.904Z,46.57
2023-04-16T21:04:08.183Z,47.18
2023-04-16T21:07:10.222Z,46.83
2023-04-16T21:10:12.230Z,46.96
2023-04-16T21:13:14.373Z,48.14
2023-04-16T21:16:16.476Z,46.61
2023-04-16T21:19:18.386Z,47.49
2023-04-16T21:22:20.491Z,48.27
2023-04-16T21:25:25.673Z,47.30
2023-04-16T21:28:27.518Z,46.59
2023-04-16T21:31:29.443Z,48.40
2023-04-16T21:34:31.313Z,48.79
2023-04-16T21:37:33.195Z,47.99
2023-04-16T21:40:35.013Z,49.14
2023-04-16T21:43:36.958Z,50.49
2023-04-16T21:46:38.893Z,50.61
2023-04-16T21:49:42.360Z,50.10
2023-04-16T21:52:46.167Z,50.32
2023-04-16T21:55:48.080Z,50.06
2023-04-16T21:58:49.983Z,50.88
2023-04-16T22:01:52.046Z,50.58
2023-04-16T22:04:54.127Z,50.22
2023-04-16T22:07:56.285Z,50.94
2023-04-16T22:10:59.192Z,48.92
2023-04-16T22:14:01.092Z,49.69
2023-04-16T22:17:03.461Z,47.50
2023-04-16T22:20:11.539Z,47.64
2023-04-16T22:23:13.735Z,47.32
2023-04-16T22:26:15.669Z,46.30
2023-04-16T22:29:17.738Z,46.27
2023-04-16T22:32:19.711Z,47.32
2023-04-16T22:35:21.682Z,47.22
2023-04-16T22:38:23.713Z,48.90
2023-04-16T22:41:25.574Z,46.41
2023-04-16T22:44:27.434Z,45.94
2023-04-16T22:47:29.305Z,46.70
2023-04-16T22:50:31.522Z,46.10
2023-04-16T22:53:33.503Z,47.96
2023-04-16T22:56:35.668Z,45.73
2023-04-16T22:59:37.774Z,46.39
2023-04-16T23:02:39.749Z,47.08
2023-04-16T23:05:41.661Z,47.29
2023-04-16T23:08:43.554Z,47.00
2023-04-16T23:11:45.760Z,47.16
2023-04-16T23:14:48.143Z,47.85
2023-04-16T23:17:50.041Z,46.93
2023-04-16T23:20:52.746Z,47.32
2023-04-16T23:23:54.909Z,47.38
2023-04-16T23:26:57.992Z,49.13
2023-04-16T23:29:59.827Z,48.48
2023-04-16T23:33:02.978Z,47.13
2023-04-16T23:36:05.120Z,48.03
2023-04-16T23:39:07.078Z,47.44
2023-04-16T23:42:08.953Z,48.01
2023-04-16T23:45:10.978Z,47.77
2023-04-16T23:48:12.870Z,46.15
2023-04-16T23:51:14.787Z,47.32
2023-04-16T23:54:17.214Z,46.88
2023-04-16T23:57:19.175Z,48.83
